sensor_id;sensor_type;location;lat;lon;timestamp;P1;durP1;ratioP1;P2;durP2;ratioP2
8568;SDS011;4322;51.104;-4.162;2022-07-23T00:00:33;0.90;;;0.90;;
8568;SDS011;4322;51.104;-4.162;2022-07-23T00:03:05;0.90;;;0.90;;
8568;SDS011;4322;51.104;-4.162;2022-07-23T00:05:33;1.00;;;1.00;;
8568;SDS011;4322;51.104;-4.162;2022-07-23T00:08:02;0.90;;;0.90;;
8568;SDS011;4322;51.104;-4.162;2022-07-23T00:10:34;0.90;;;0.90;;
8568;SDS011;4322;51.104;-4.162;2022-07-23T00:13:03;0.80;;;0.80;;
8568;SDS011;4322;51.104;-4.162;2022-07-23T00:15:32;0.80;;;0.80;;
8568;SDS011;4322;51.104;-4.162;2022-07-23T00:18:00;0.90;;;0.90;;
8568;SDS011;4322;51.104;-4.162;2022-07-23T00:20:28;0.70;;;0.70;;
8568;SDS011;4322;51.104;-4.162;2022-07-23T00:22:56;0.80;;;0.80;;
8568;SDS011;4322;51.104;-4.162;2022-07-23T00:25:26;0.80;;;0.80;;
8568;SDS011;4322;51.104;-4.162;2022-07-23T00:27:57;1.00;;;1.00;;
8568;SDS011;4322;51.104;-4.162;2022-07-23T00:30:27;0.70;;;0.70;;
8568;SDS011;4322;51.104;-4.162;2022-07-23T00:32:57;0.93;;;0.93;;
8568;SDS011;4322;51.104;-4.162;2022-07-23T00:35:28;1.00;;;1.00;;
8568;SDS011;4322;51.104;-4.162;2022-07-23T00:37:57;1.00;;;1.00;;
8568;SDS011;4322;51.104;-4.162;2022-07-23T00:40:27;0.80;;;0.80;;
8568;SDS011;4322;51.104;-4.162;2022-07-23T00:42:56;1.03;;;1.03;;
8568;SDS011;4322;51.104;-4.162;2022-07-23T00:45:26;1.10;;;1.10;;
8568;SDS011;4322;51.104;-4.162;2022-07-23T00:47:55;1.00;;;1.00;;
8568;SDS011;4322;51.104;-4.162;2022-07-23T00:50:23;0.80;;;0.80;;
8568;SDS011;4322;51.104;-4.162;2022-07-23T00:52:51;1.00;;;1.00;;
8568;SDS011;4322;51.104;-4.162;2022-07-23T00:55:20;0.73;;;0.73;;
8568;SDS011;4322;51.104;-4.162;2022-07-23T00:57:48;0.97;;;0.97;;
8568;SDS011;4322;51.104;-4.162;2022-07-23T01:00:17;1.10;;;1.10;;
8568;SDS011;4322;51.104;-4.162;2022-07-23T01:02:47;1.00;;;1.00;;
8568;SDS011;4322;51.104;-4.162;2022-07-23T01:05:15;1.03;;;1.03;;
8568;SDS011;4322;51.104;-4.162;2022-07-23T01:07:43;1.20;;;1.20;;
8568;SDS011;4322;51.104;-4.162;2022-07-23T01:10:13;0.83;;;0.83;;
8568;SDS011;4322;51.104;-4.162;2022-07-23T01:13:00;0.90;;;0.90;;
8568;SDS011;4322;51.104;-4.162;2022-07-23T01:15:29;0.80;;;0.80;;
8568;SDS011;4322;51.104;-4.162;2022-07-23T01:18:00;1.10;;;1.10;;
8568;SDS011;4322;51.104;-4.162;2022-07-23T01:20:28;0.87;;;0.87;;
8568;SDS011;4322;51.104;-4.162;2022-07-23T01:22:57;1.00;;;1.00;;
8568;SDS011;4322;51.104;-4.162;2022-07-23T01:25:26;1.00;;;1.00;;
8568;SDS011;4322;51.104;-4.162;2022-07-23T01:27:54;0.80;;;0.80;;
8568;SDS011;4322;51.104;-4.162;2022-07-23T01:30:25;0.80;;;0.80;;
8568;SDS011;4322;51.104;-4.162;2022-07-23T01:32:53;0.93;;;0.93;;
8568;SDS011;4322;51.104;-4.162;2022-07-23T01:35:21;0.90;;;0.90;;
8568;SDS011;4322;51.104;-4.162;2022-07-23T01:37:49;0.90;;;0.90;;
8568;SDS011;4322;51.104;-4.162;2022-07-23T01:40:18;0.90;;;0.90;;
8568;SDS011;4322;51.104;-4.162;2022-07-23T01:42:48;1.10;;;1.10;;
8568;SDS011;4322;51.104;-4.162;2022-07-23T01:45:16;0.97;;;0.97;;
8568;SDS011;4322;51.104;-4.162;2022-07-23T01:47:44;0.80;;;0.80;;
8568;SDS011;4322;51.104;-4.162;2022-07-23T01:50:12;0.90;;;0.90;;
8568;SDS011;4322;51.104;-4.162;2022-07-23T01:52:41;1.10;;;1.10;;
8568;SDS011;4322;51.104;-4.162;2022-07-23T01:55:09;1.00;;;1.00;;
8568;SDS011;4322;51.104;-4.162;2022-07-23T01:57:45;0.90;;;0.90;;
8568;SDS011;4322;51.104;-4.162;2022-07-23T02:00:13;0.80;;;0.80;;
8568;SDS011;4322;51.104;-4.162;2022-07-23T02:02:41;0.80;;;0.80;;
8568;SDS011;4322;51.104;-4.162;2022-07-23T02:05:10;0.70;;;0.70;;
8568;SDS011;4322;51.104;-4.162;2022-07-23T02:07:38;0.80;;;0.80;;
8568;SDS011;4322;51.104;-4.162;2022-07-23T02:10:06;0.97;;;0.97;;
8568;SDS011;4322;51.104;-4.162;2022-07-23T02:12:35;0.90;;;0.90;;
8568;SDS011;4322;51.104;-4.162;2022-07-23T02:15:05;1.17;;;1.17;;
8568;SDS011;4322;51.104;-4.162;2022-07-23T02:17:35;0.90;;;0.90;;
8568;SDS011;4322;51.104;-4.162;2022-07-23T02:20:05;1.00;;;1.00;;
8568;SDS011;4322;51.104;-4.162;2022-07-23T02:22:34;0.83;;;0.83;;
8568;SDS011;4322;51.104;-4.162;2022-07-23T02:25:02;1.00;;;1.00;;
8568;SDS011;4322;51.104;-4.162;2022-07-23T02:27:31;0.90;;;0.90;;
8568;SDS011;4322;51.104;-4.162;2022-07-23T02:29:59;0.80;;;0.80;;
8568;SDS011;4322;51.104;-4.162;2022-07-23T02:32:29;1.00;;;1.00;;
8568;SDS011;4322;51.104;-4.162;2022-07-23T02:34:57;1.00;;;1.00;;
8568;SDS011;4322;51.104;-4.162;2022-07-23T02:37:25;0.90;;;0.90;;
8568;SDS011;4322;51.104;-4.162;2022-07-23T02:39:53;0.97;;;0.97;;
8568;SDS011;4322;51.104;-4.162;2022-07-23T02:42:21;1.00;;;1.00;;
8568;SDS011;4322;51.104;-4.162;2022-07-23T02:44:50;1.00;;;1.00;;
8568;SDS011;4322;51.104;-4.162;2022-07-23T02:47:18;1.10;;;1.10;;
8568;SDS011;4322;51.104;-4.162;2022-07-23T02:49:48;0.80;;;0.80;;
8568;SDS011;4322;51.104;-4.162;2022-07-23T02:52:16;0.90;;;0.90;;
8568;SDS011;4322;51.104;-4.162;2022-07-23T02:54:44;1.00;;;1.00;;
8568;SDS011;4322;51.104;-4.162;2022-07-23T02:57:12;0.90;;;0.90;;
8568;SDS011;4322;51.104;-4.162;2022-07-23T02:59:40;1.00;;;1.00;;
8568;SDS011;4322;51.104;-4.162;2022-07-23T03:02:08;0.70;;;0.70;;
8568;SDS011;4322;51.104;-4.162;2022-07-23T03:04:36;1.07;;;1.07;;
8568;SDS011;4322;51.104;-4.162;2022-07-23T03:07:05;0.90;;;0.90;;
8568;SDS011;4322;51.104;-4.162;2022-07-23T03:09:33;1.10;;;1.10;;
8568;SDS011;4322;51.104;-4.162;2022-07-23T03:12:02;1.07;;;1.07;;
8568;SDS011;4322;51.104;-4.162;2022-07-23T03:14:38;0.90;;;0.90;;
8568;SDS011;4322;51.104;-4.162;2022-07-23T03:17:07;0.80;;;0.80;;
8568;SDS011;4322;51.104;-4.162;2022-07-23T03:19:35;0.90;;;0.90;;
8568;SDS011;4322;51.104;-4.162;2022-07-23T03:22:06;1.00;;;1.00;;
8568;SDS011;4322;51.104;-4.162;2022-07-23T03:24:35;1.03;;;1.03;;
8568;SDS011;4322;51.104;-4.162;2022-07-23T03:27:21;1.00;;;1.00;;
8568;SDS011;4322;51.104;-4.162;2022-07-23T03:29:49;1.10;;;1.10;;
8568;SDS011;4322;51.104;-4.162;2022-07-23T03:32:18;0.90;;;0.90;;
8568;SDS011;4322;51.104;-4.162;2022-07-23T03:34:46;1.00;;;1.00;;
8568;SDS011;4322;51.104;-4.162;2022-07-23T03:37:16;0.87;;;0.87;;
8568;SDS011;4322;51.104;-4.162;2022-07-23T03:39:44;1.10;;;1.10;;
8568;SDS011;4322;51.104;-4.162;2022-07-23T03:42:12;1.10;;;1.10;;
8568;SDS011;4322;51.104;-4.162;2022-07-23T03:44:40;0.90;;;0.90;;
8568;SDS011;4322;51.104;-4.162;2022-07-23T03:47:08;1.20;;;1.20;;
8568;SDS011;4322;51.104;-4.162;2022-07-23T03:49:36;1.10;;;1.10;;
8568;SDS011;4322;51.104;-4.162;2022-07-23T03:52:04;1.20;;;1.20;;
8568;SDS011;4322;51.104;-4.162;2022-07-23T03:54:34;1.00;;;1.00;;
8568;SDS011;4322;51.104;-4.162;2022-07-23T03:57:02;1.03;;;1.03;;
8568;SDS011;4322;51.104;-4.162;2022-07-23T03:59:31;1.00;;;1.00;;
8568;SDS011;4322;51.104;-4.162;2022-07-23T04:01:59;1.17;;;1.17;;
8568;SDS011;4322;51.104;-4.162;2022-07-23T04:04:27;1.07;;;1.07;;
8568;SDS011;4322;51.104;-4.162;2022-07-23T04:06:56;1.07;;;1.07;;
8568;SDS011;4322;51.104;-4.162;2022-07-23T04:09:24;0.90;;;0.90;;
8568;SDS011;4322;51.104;-4.162;2022-07-23T04:11:53;1.00;;;1.00;;
8568;SDS011;4322;51.104;-4.162;2022-07-23T04:14:21;0.97;;;0.97;;
8568;SDS011;4322;51.104;-4.162;2022-07-23T04:16:49;1.03;;;1.03;;
8568;SDS011;4322;51.104;-4.162;2022-07-23T04:19:18;1.13;;;1.13;;
8568;SDS011;4322;51.104;-4.162;2022-07-23T04:21:46;1.00;;;1.00;;
8568;SDS011;4322;51.104;-4.162;2022-07-23T04:24:14;1.20;;;1.20;;
8568;SDS011;4322;51.104;-4.162;2022-07-23T04:26:42;1.07;;;1.07;;
8568;SDS011;4322;51.104;-4.162;2022-07-23T04:29:12;0.90;;;0.90;;
8568;SDS011;4322;51.104;-4.162;2022-07-23T04:31:40;1.00;;;1.00;;
8568;SDS011;4322;51.104;-4.162;2022-07-23T04:34:08;1.07;;;1.07;;
8568;SDS011;4322;51.104;-4.162;2022-07-23T04:36:36;1.10;;;1.10;;
8568;SDS011;4322;51.104;-4.162;2022-07-23T04:39:04;1.00;;;1.00;;
8568;SDS011;4322;51.104;-4.162;2022-07-23T04:41:33;1.00;;;1.00;;
8568;SDS011;4322;51.104;-4.162;2022-07-23T04:44:02;1.30;;;1.30;;
8568;SDS011;4322;51.104;-4.162;2022-07-23T04:46:32;1.23;;;1.23;;
8568;SDS011;4322;51.104;-4.162;2022-07-23T04:49:00;1.27;;;1.27;;
8568;SDS011;4322;51.104;-4.162;2022-07-23T04:51:28;1.30;;;1.30;;
8568;SDS011;4322;51.104;-4.162;2022-07-23T04:53:56;1.23;;;1.23;;
8568;SDS011;4322;51.104;-4.162;2022-07-23T04:56:25;1.30;;;1.30;;
8568;SDS011;4322;51.104;-4.162;2022-07-23T04:58:53;1.10;;;1.10;;
8568;SDS011;4322;51.104;-4.162;2022-07-23T05:01:21;1.10;;;1.10;;
8568;SDS011;4322;51.104;-4.162;2022-07-23T05:03:50;1.30;;;1.30;;
8568;SDS011;4322;51.104;-4.162;2022-07-23T05:06:18;1.20;;;1.20;;
8568;SDS011;4322;51.104;-4.162;2022-07-23T05:08:46;1.33;;;1.33;;
8568;SDS011;4322;51.104;-4.162;2022-07-23T05:11:15;1.27;;;1.27;;
8568;SDS011;4322;51.104;-4.162;2022-07-23T05:13:43;1.50;;;1.50;;
8568;SDS011;4322;51.104;-4.162;2022-07-23T05:16:11;1.13;;;1.13;;
8568;SDS011;4322;51.104;-4.162;2022-07-23T05:18:39;1.40;;;1.40;;
8568;SDS011;4322;51.104;-4.162;2022-07-23T05:21:09;1.50;;;1.50;;
8568;SDS011;4322;51.104;-4.162;2022-07-23T05:23:37;1.20;;;1.20;;
8568;SDS011;4322;51.104;-4.162;2022-07-23T05:26:05;1.60;;;1.60;;
8568;SDS011;4322;51.104;-4.162;2022-07-23T05:28:33;1.63;;;1.63;;
8568;SDS011;4322;51.104;-4.162;2022-07-23T05:31:01;1.40;;;1.40;;
8568;SDS011;4322;51.104;-4.162;2022-07-23T05:33:30;1.37;;;1.37;;
8568;SDS011;4322;51.104;-4.162;2022-07-23T05:36:00;1.40;;;1.40;;
8568;SDS011;4322;51.104;-4.162;2022-07-23T05:38:31;1.70;;;1.70;;
8568;SDS011;4322;51.104;-4.162;2022-07-23T05:40:59;1.40;;;1.40;;
8568;SDS011;4322;51.104;-4.162;2022-07-23T05:43:28;1.30;;;1.30;;
8568;SDS011;4322;51.104;-4.162;2022-07-23T05:45:56;1.30;;;1.30;;
8568;SDS011;4322;51.104;-4.162;2022-07-23T05:48:24;1.40;;;1.40;;
8568;SDS011;4322;51.104;-4.162;2022-07-23T05:50:53;1.27;;;1.27;;
8568;SDS011;4322;51.104;-4.162;2022-07-23T05:53:21;1.40;;;1.40;;
8568;SDS011;4322;51.104;-4.162;2022-07-23T05:55:50;1.30;;;1.30;;
8568;SDS011;4322;51.104;-4.162;2022-07-23T05:58:18;1.50;;;1.50;;
8568;SDS011;4322;51.104;-4.162;2022-07-23T06:00:46;1.60;;;1.60;;
8568;SDS011;4322;51.104;-4.162;2022-07-23T06:03:15;1.60;;;1.60;;
8568;SDS011;4322;51.104;-4.162;2022-07-23T06:05:43;1.40;;;1.40;;
8568;SDS011;4322;51.104;-4.162;2022-07-23T06:08:11;1.50;;;1.50;;
8568;SDS011;4322;51.104;-4.162;2022-07-23T06:10:39;1.50;;;1.50;;
8568;SDS011;4322;51.104;-4.162;2022-07-23T06:13:09;1.70;;;1.70;;
8568;SDS011;4322;51.104;-4.162;2022-07-23T06:15:37;1.60;;;1.60;;
8568;SDS011;4322;51.104;-4.162;2022-07-23T06:18:05;1.60;;;1.60;;
8568;SDS011;4322;51.104;-4.162;2022-07-23T06:20:33;1.47;;;1.47;;
8568;SDS011;4322;51.104;-4.162;2022-07-23T06:23:01;1.67;;;1.67;;
8568;SDS011;4322;51.104;-4.162;2022-07-23T06:25:30;1.80;;;1.80;;
8568;SDS011;4322;51.104;-4.162;2022-07-23T06:27:58;1.70;;;1.70;;
8568;SDS011;4322;51.104;-4.162;2022-07-23T06:30:27;1.80;;;1.80;;
8568;SDS011;4322;51.104;-4.162;2022-07-23T06:32:56;1.90;;;1.90;;
8568;SDS011;4322;51.104;-4.162;2022-07-23T06:35:24;1.90;;;1.90;;
8568;SDS011;4322;51.104;-4.162;2022-07-23T06:37:52;1.70;;;1.70;;
8568;SDS011;4322;51.104;-4.162;2022-07-23T06:40:20;2.00;;;2.00;;
8568;SDS011;4322;51.104;-4.162;2022-07-23T06:42:49;1.80;;;1.80;;
8568;SDS011;4322;51.104;-4.162;2022-07-23T06:45:17;1.97;;;1.97;;
8568;SDS011;4322;51.104;-4.162;2022-07-23T06:47:47;2.30;;;2.20;;
8568;SDS011;4322;51.104;-4.162;2022-07-23T06:50:15;2.40;;;2.30;;
8568;SDS011;4322;51.104;-4.162;2022-07-23T06:52:43;2.23;;;2.13;;
8568;SDS011;4322;51.104;-4.162;2022-07-23T06:55:18;2.50;;;2.40;;
8568;SDS011;4322;51.104;-4.162;2022-07-23T06:57:46;2.50;;;2.40;;
8568;SDS011;4322;51.104;-4.162;2022-07-23T07:00:14;2.53;;;2.43;;
8568;SDS011;4322;51.104;-4.162;2022-07-23T07:02:42;2.27;;;2.17;;
8568;SDS011;4322;51.104;-4.162;2022-07-23T07:05:12;2.60;;;2.50;;
8568;SDS011;4322;51.104;-4.162;2022-07-23T07:07:41;2.67;;;2.57;;
8568;SDS011;4322;51.104;-4.162;2022-07-23T07:10:09;2.70;;;2.60;;
8568;SDS011;4322;51.104;-4.162;2022-07-23T07:12:41;2.63;;;2.53;;
8568;SDS011;4322;51.104;-4.162;2022-07-23T07:15:09;2.60;;;2.50;;
8568;SDS011;4322;51.104;-4.162;2022-07-23T07:17:37;2.80;;;2.70;;
8568;SDS011;4322;51.104;-4.162;2022-07-23T07:20:06;2.50;;;2.40;;
8568;SDS011;4322;51.104;-4.162;2022-07-23T07:22:37;2.70;;;2.60;;
8568;SDS011;4322;51.104;-4.162;2022-07-23T07:25:05;2.47;;;2.37;;
8568;SDS011;4322;51.104;-4.162;2022-07-23T07:27:34;2.57;;;2.47;;
8568;SDS011;4322;51.104;-4.162;2022-07-23T07:30:02;2.60;;;2.50;;
8568;SDS011;4322;51.104;-4.162;2022-07-23T07:32:33;2.60;;;2.50;;
8568;SDS011;4322;51.104;-4.162;2022-07-23T07:35:22;2.77;;;2.67;;
8568;SDS011;4322;51.104;-4.162;2022-07-23T07:37:52;2.80;;;2.70;;
8568;SDS011;4322;51.104;-4.162;2022-07-23T07:40:20;2.60;;;2.50;;
8568;SDS011;4322;51.104;-4.162;2022-07-23T07:42:49;2.47;;;2.37;;
8568;SDS011;4322;51.104;-4.162;2022-07-23T07:45:19;2.73;;;2.63;;
8568;SDS011;4322;51.104;-4.162;2022-07-23T07:47:48;2.90;;;2.80;;
8568;SDS011;4322;51.104;-4.162;2022-07-23T07:50:17;2.50;;;2.40;;
8568;SDS011;4322;51.104;-4.162;2022-07-23T07:52:45;2.67;;;2.57;;
8568;SDS011;4322;51.104;-4.162;2022-07-23T07:55:15;2.90;;;2.80;;
8568;SDS011;4322;51.104;-4.162;2022-07-23T07:57:44;2.73;;;2.63;;
8568;SDS011;4322;51.104;-4.162;2022-07-23T08:00:15;2.90;;;2.80;;
8568;SDS011;4322;51.104;-4.162;2022-07-23T08:02:46;2.97;;;2.87;;
8568;SDS011;4322;51.104;-4.162;2022-07-23T08:05:18;2.80;;;2.70;;
8568;SDS011;4322;51.104;-4.162;2022-07-23T08:07:53;2.67;;;2.57;;
8568;SDS011;4322;51.104;-4.162;2022-07-23T08:10:23;2.50;;;2.40;;
8568;SDS011;4322;51.104;-4.162;2022-07-23T08:12:52;2.80;;;2.70;;
8568;SDS011;4322;51.104;-4.162;2022-07-23T08:15:23;2.90;;;2.80;;
8568;SDS011;4322;51.104;-4.162;2022-07-23T08:17:52;2.77;;;2.67;;
8568;SDS011;4322;51.104;-4.162;2022-07-23T08:20:21;2.80;;;2.70;;
8568;SDS011;4322;51.104;-4.162;2022-07-23T08:22:51;2.70;;;2.60;;
8568;SDS011;4322;51.104;-4.162;2022-07-23T08:25:21;2.30;;;2.20;;
8568;SDS011;4322;51.104;-4.162;2022-07-23T08:27:52;2.83;;;2.73;;
8568;SDS011;4322;51.104;-4.162;2022-07-23T08:30:22;2.90;;;2.80;;
8568;SDS011;4322;51.104;-4.162;2022-07-23T08:32:51;2.40;;;2.30;;
8568;SDS011;4322;51.104;-4.162;2022-07-23T08:35:22;2.80;;;2.70;;
8568;SDS011;4322;51.104;-4.162;2022-07-23T08:37:52;2.73;;;2.63;;
8568;SDS011;4322;51.104;-4.162;2022-07-23T08:40:20;2.83;;;2.73;;
8568;SDS011;4322;51.104;-4.162;2022-07-23T08:42:50;2.90;;;2.80;;
8568;SDS011;4322;51.104;-4.162;2022-07-23T08:45:19;2.70;;;2.60;;
8568;SDS011;4322;51.104;-4.162;2022-07-23T08:47:49;2.50;;;2.40;;
8568;SDS011;4322;51.104;-4.162;2022-07-23T08:50:19;3.17;;;3.07;;
8568;SDS011;4322;51.104;-4.162;2022-07-23T08:52:48;2.90;;;2.80;;
8568;SDS011;4322;51.104;-4.162;2022-07-23T08:55:18;3.07;;;2.97;;
8568;SDS011;4322;51.104;-4.162;2022-07-23T08:57:47;3.03;;;2.93;;
8568;SDS011;4322;51.104;-4.162;2022-07-23T09:00:18;2.87;;;2.77;;
8568;SDS011;4322;51.104;-4.162;2022-07-23T09:02:47;2.93;;;2.83;;
8568;SDS011;4322;51.104;-4.162;2022-07-23T09:05:17;3.03;;;2.93;;
8568;SDS011;4322;51.104;-4.162;2022-07-23T09:08:05;2.90;;;2.80;;
8568;SDS011;4322;51.104;-4.162;2022-07-23T09:10:42;2.90;;;2.80;;
8568;SDS011;4322;51.104;-4.162;2022-07-23T09:13:26;2.93;;;2.83;;
8568;SDS011;4322;51.104;-4.162;2022-07-23T09:15:58;2.53;;;2.43;;
8568;SDS011;4322;51.104;-4.162;2022-07-23T09:18:28;2.63;;;2.53;;
8568;SDS011;4322;51.104;-4.162;2022-07-23T09:21:07;2.87;;;2.77;;
8568;SDS011;4322;51.104;-4.162;2022-07-23T09:23:41;3.00;;;2.90;;
8568;SDS011;4322;51.104;-4.162;2022-07-23T09:26:21;3.07;;;2.97;;
8568;SDS011;4322;51.104;-4.162;2022-07-23T09:29:05;2.97;;;2.87;;
8568;SDS011;4322;51.104;-4.162;2022-07-23T09:31:47;3.00;;;2.90;;
8568;SDS011;4322;51.104;-4.162;2022-07-23T09:34:18;2.80;;;2.70;;
8568;SDS011;4322;51.104;-4.162;2022-07-23T09:36:50;3.13;;;3.03;;
8568;SDS011;4322;51.104;-4.162;2022-07-23T09:39:24;2.90;;;2.80;;
8568;SDS011;4322;51.104;-4.162;2022-07-23T09:42:12;2.70;;;2.60;;
8568;SDS011;4322;51.104;-4.162;2022-07-23T09:44:41;3.30;;;3.20;;
8568;SDS011;4322;51.104;-4.162;2022-07-23T09:47:11;3.17;;;3.07;;
8568;SDS011;4322;51.104;-4.162;2022-07-23T09:49:40;3.07;;;2.97;;
8568;SDS011;4322;51.104;-4.162;2022-07-23T09:52:26;2.87;;;2.77;;
8568;SDS011;4322;51.104;-4.162;2022-07-23T09:54:59;2.40;;;2.30;;
8568;SDS011;4322;51.104;-4.162;2022-07-23T09:57:28;2.50;;;2.40;;
8568;SDS011;4322;51.104;-4.162;2022-07-23T09:59:57;2.80;;;2.70;;
8568;SDS011;4322;51.104;-4.162;2022-07-23T10:02:29;2.30;;;2.20;;
8568;SDS011;4322;51.104;-4.162;2022-07-23T10:04:59;2.50;;;2.40;;
8568;SDS011;4322;51.104;-4.162;2022-07-23T10:07:30;2.10;;;2.10;;
8568;SDS011;4322;51.104;-4.162;2022-07-23T10:10:00;2.23;;;2.17;;
8568;SDS011;4322;51.104;-4.162;2022-07-23T10:12:30;2.30;;;2.20;;
8568;SDS011;4322;51.104;-4.162;2022-07-23T10:15:14;1.93;;;1.93;;
8568;SDS011;4322;51.104;-4.162;2022-07-23T10:17:43;2.30;;;2.20;;
8568;SDS011;4322;51.104;-4.162;2022-07-23T10:20:11;2.27;;;2.20;;
8568;SDS011;4322;51.104;-4.162;2022-07-23T10:22:40;2.40;;;2.30;;
8568;SDS011;4322;51.104;-4.162;2022-07-23T10:25:18;2.00;;;2.00;;
8568;SDS011;4322;51.104;-4.162;2022-07-23T10:28:03;2.30;;;2.20;;
8568;SDS011;4322;51.104;-4.162;2022-07-23T10:30:41;2.30;;;2.20;;
8568;SDS011;4322;51.104;-4.162;2022-07-23T10:33:17;2.40;;;2.30;;
8568;SDS011;4322;51.104;-4.162;2022-07-23T10:35:58;2.30;;;2.20;;
8568;SDS011;4322;51.104;-4.162;2022-07-23T10:38:32;2.03;;;2.03;;
8568;SDS011;4322;51.104;-4.162;2022-07-23T10:41:04;2.17;;;2.17;;
8568;SDS011;4322;51.104;-4.162;2022-07-23T10:43:33;2.13;;;2.13;;
8568;SDS011;4322;51.104;-4.162;2022-07-23T10:54:49;2.33;;;2.23;;
8568;SDS011;4322;51.104;-4.162;2022-07-23T10:57:19;2.40;;;2.30;;
8568;SDS011;4322;51.104;-4.162;2022-07-23T11:02:51;1.80;;;1.80;;
8568;SDS011;4322;51.104;-4.162;2022-07-23T11:05:22;1.63;;;1.63;;
8568;SDS011;4322;51.104;-4.162;2022-07-23T11:08:14;1.73;;;1.73;;
8568;SDS011;4322;51.104;-4.162;2022-07-23T11:10:45;1.70;;;1.70;;
8568;SDS011;4322;51.104;-4.162;2022-07-23T11:16:21;1.70;;;1.70;;
8568;SDS011;4322;51.104;-4.162;2022-07-23T11:18:57;1.80;;;1.80;;
8568;SDS011;4322;51.104;-4.162;2022-07-23T11:21:45;1.70;;;1.70;;
8568;SDS011;4322;51.104;-4.162;2022-07-23T11:24:17;1.60;;;1.60;;
8568;SDS011;4322;51.104;-4.162;2022-07-23T11:26:50;1.60;;;1.60;;
8568;SDS011;4322;51.104;-4.162;2022-07-23T11:32:29;1.70;;;1.70;;
8568;SDS011;4322;51.104;-4.162;2022-07-23T11:35:01;1.73;;;1.73;;
8568;SDS011;4322;51.104;-4.162;2022-07-23T11:37:35;1.80;;;1.80;;
8568;SDS011;4322;51.104;-4.162;2022-07-23T11:40:06;1.80;;;1.80;;
8568;SDS011;4322;51.104;-4.162;2022-07-23T11:42:36;1.70;;;1.70;;
8568;SDS011;4322;51.104;-4.162;2022-07-23T11:45:06;1.80;;;1.80;;
8568;SDS011;4322;51.104;-4.162;2022-07-23T11:47:35;2.17;;;2.13;;
8568;SDS011;4322;51.104;-4.162;2022-07-23T11:50:05;2.30;;;2.20;;
8568;SDS011;4322;51.104;-4.162;2022-07-23T11:52:35;2.13;;;2.10;;
8568;SDS011;4322;51.104;-4.162;2022-07-23T11:55:04;2.40;;;2.30;;
8568;SDS011;4322;51.104;-4.162;2022-07-23T11:57:35;2.50;;;2.40;;
8568;SDS011;4322;51.104;-4.162;2022-07-23T12:00:07;2.83;;;2.73;;
8568;SDS011;4322;51.104;-4.162;2022-07-23T12:02:37;3.23;;;3.13;;
8568;SDS011;4322;51.104;-4.162;2022-07-23T12:05:07;3.87;;;3.77;;
8568;SDS011;4322;51.104;-4.162;2022-07-23T12:07:40;3.13;;;3.03;;
8568;SDS011;4322;51.104;-4.162;2022-07-23T12:10:12;3.33;;;3.23;;
8568;SDS011;4322;51.104;-4.162;2022-07-23T12:12:42;2.97;;;2.87;;
8568;SDS011;4322;51.104;-4.162;2022-07-23T12:15:13;3.67;;;3.57;;
8568;SDS011;4322;51.104;-4.162;2022-07-23T12:17:42;3.97;;;3.83;;
8568;SDS011;4322;51.104;-4.162;2022-07-23T12:20:17;2.90;;;2.80;;
8568;SDS011;4322;51.104;-4.162;2022-07-23T12:22:49;2.70;;;2.60;;
8568;SDS011;4322;51.104;-4.162;2022-07-23T12:25:19;3.70;;;3.60;;
8568;SDS011;4322;51.104;-4.162;2022-07-23T12:27:57;3.00;;;2.90;;
8568;SDS011;4322;51.104;-4.162;2022-07-23T12:30:28;3.20;;;3.10;;
8568;SDS011;4322;51.104;-4.162;2022-07-23T12:33:02;2.90;;;2.80;;
8568;SDS011;4322;51.104;-4.162;2022-07-23T12:35:31;3.03;;;2.93;;
8568;SDS011;4322;51.104;-4.162;2022-07-23T12:38:04;2.43;;;2.33;;
8568;SDS011;4322;51.104;-4.162;2022-07-23T12:40:35;2.73;;;2.63;;
8568;SDS011;4322;51.104;-4.162;2022-07-23T12:43:09;2.60;;;2.50;;
8568;SDS011;4322;51.104;-4.162;2022-07-23T12:45:46;2.70;;;2.60;;
8568;SDS011;4322;51.104;-4.162;2022-07-23T12:48:17;2.33;;;2.23;;
8568;SDS011;4322;51.104;-4.162;2022-07-23T12:50:49;2.50;;;2.40;;
8568;SDS011;4322;51.104;-4.162;2022-07-23T12:53:21;2.50;;;2.40;;
8568;SDS011;4322;51.104;-4.162;2022-07-23T12:55:51;2.20;;;2.10;;
8568;SDS011;4322;51.104;-4.162;2022-07-23T12:58:46;2.30;;;2.20;;
8568;SDS011;4322;51.104;-4.162;2022-07-23T13:01:26;1.93;;;1.93;;
8568;SDS011;4322;51.104;-4.162;2022-07-23T13:03:58;2.43;;;2.33;;
8568;SDS011;4322;51.104;-4.162;2022-07-23T13:06:37;2.30;;;2.20;;
8568;SDS011;4322;51.104;-4.162;2022-07-23T13:09:09;2.13;;;2.13;;
8568;SDS011;4322;51.104;-4.162;2022-07-23T13:11:39;2.27;;;2.17;;
8568;SDS011;4322;51.104;-4.162;2022-07-23T13:14:07;2.60;;;2.50;;
8568;SDS011;4322;51.104;-4.162;2022-07-23T13:16:35;2.60;;;2.50;;
8568;SDS011;4322;51.104;-4.162;2022-07-23T13:19:04;2.50;;;2.40;;
8568;SDS011;4322;51.104;-4.162;2022-07-23T13:21:37;2.60;;;2.50;;
8568;SDS011;4322;51.104;-4.162;2022-07-23T13:24:08;2.73;;;2.63;;
8568;SDS011;4322;51.104;-4.162;2022-07-23T13:26:38;2.80;;;2.70;;
8568;SDS011;4322;51.104;-4.162;2022-07-23T13:29:07;2.77;;;2.67;;
8568;SDS011;4322;51.104;-4.162;2022-07-23T13:31:36;2.70;;;2.60;;
8568;SDS011;4322;51.104;-4.162;2022-07-23T13:34:05;2.40;;;2.30;;
8568;SDS011;4322;51.104;-4.162;2022-07-23T13:36:34;2.93;;;2.83;;
8568;SDS011;4322;51.104;-4.162;2022-07-23T13:39:03;2.57;;;2.47;;
8568;SDS011;4322;51.104;-4.162;2022-07-23T13:41:36;2.97;;;2.87;;
8568;SDS011;4322;51.104;-4.162;2022-07-23T13:44:05;3.10;;;3.00;;
8568;SDS011;4322;51.104;-4.162;2022-07-23T13:46:33;3.17;;;3.07;;
8568;SDS011;4322;51.104;-4.162;2022-07-23T13:49:01;3.20;;;3.10;;
8568;SDS011;4322;51.104;-4.162;2022-07-23T13:51:34;2.90;;;2.80;;
8568;SDS011;4322;51.104;-4.162;2022-07-23T13:54:02;3.20;;;3.10;;
8568;SDS011;4322;51.104;-4.162;2022-07-23T13:56:36;3.10;;;3.00;;
8568;SDS011;4322;51.104;-4.162;2022-07-23T13:59:04;2.50;;;2.40;;
8568;SDS011;4322;51.104;-4.162;2022-07-23T14:01:32;2.57;;;2.47;;
8568;SDS011;4322;51.104;-4.162;2022-07-23T14:04:21;3.33;;;3.23;;
8568;SDS011;4322;51.104;-4.162;2022-07-23T14:06:50;3.30;;;3.20;;
8568;SDS011;4322;51.104;-4.162;2022-07-23T14:09:20;3.80;;;3.70;;
8568;SDS011;4322;51.104;-4.162;2022-07-23T14:11:52;4.13;;;3.93;;
8568;SDS011;4322;51.104;-4.162;2022-07-23T14:14:20;3.17;;;3.07;;
8568;SDS011;4322;51.104;-4.162;2022-07-23T14:16:48;3.23;;;3.13;;
8568;SDS011;4322;51.104;-4.162;2022-07-23T14:19:17;3.53;;;3.43;;
8568;SDS011;4322;51.104;-4.162;2022-07-23T14:21:45;4.20;;;4.00;;
8568;SDS011;4322;51.104;-4.162;2022-07-23T14:24:15;3.90;;;3.80;;
8568;SDS011;4322;51.104;-4.162;2022-07-23T14:26:44;3.47;;;3.37;;
8568;SDS011;4322;51.104;-4.162;2022-07-23T14:29:14;3.13;;;3.03;;
8568;SDS011;4322;51.104;-4.162;2022-07-23T14:31:42;3.57;;;3.47;;
8568;SDS011;4322;51.104;-4.162;2022-07-23T14:34:13;3.63;;;3.53;;
8568;SDS011;4322;51.104;-4.162;2022-07-23T14:36:41;3.80;;;3.70;;
8568;SDS011;4322;51.104;-4.162;2022-07-23T14:39:09;3.40;;;3.30;;
8568;SDS011;4322;51.104;-4.162;2022-07-23T14:41:38;3.23;;;3.13;;
8568;SDS011;4322;51.104;-4.162;2022-07-23T14:44:06;2.90;;;2.80;;
8568;SDS011;4322;51.104;-4.162;2022-07-23T14:46:36;3.43;;;3.33;;
8568;SDS011;4322;51.104;-4.162;2022-07-23T14:49:05;3.10;;;3.00;;
8568;SDS011;4322;51.104;-4.162;2022-07-23T14:51:34;3.30;;;3.20;;
8568;SDS011;4322;51.104;-4.162;2022-07-23T14:54:02;3.50;;;3.40;;
8568;SDS011;4322;51.104;-4.162;2022-07-23T14:56:31;3.30;;;3.20;;
8568;SDS011;4322;51.104;-4.162;2022-07-23T14:59:00;3.20;;;3.10;;
8568;SDS011;4322;51.104;-4.162;2022-07-23T15:01:30;3.30;;;3.20;;
8568;SDS011;4322;51.104;-4.162;2022-07-23T15:04:01;2.90;;;2.80;;
8568;SDS011;4322;51.104;-4.162;2022-07-23T15:06:50;3.53;;;3.43;;
8568;SDS011;4322;51.104;-4.162;2022-07-23T15:09:18;3.77;;;3.67;;
8568;SDS011;4322;51.104;-4.162;2022-07-23T15:11:47;3.03;;;2.93;;
8568;SDS011;4322;51.104;-4.162;2022-07-23T15:14:15;3.50;;;3.40;;
8568;SDS011;4322;51.104;-4.162;2022-07-23T15:16:53;3.43;;;3.33;;
8568;SDS011;4322;51.104;-4.162;2022-07-23T15:19:23;3.27;;;3.17;;
8568;SDS011;4322;51.104;-4.162;2022-07-23T15:21:56;3.10;;;3.00;;
8568;SDS011;4322;51.104;-4.162;2022-07-23T15:24:27;3.33;;;3.23;;
8568;SDS011;4322;51.104;-4.162;2022-07-23T15:26:55;2.80;;;2.70;;
8568;SDS011;4322;51.104;-4.162;2022-07-23T15:29:24;2.90;;;2.80;;
8568;SDS011;4322;51.104;-4.162;2022-07-23T15:31:52;3.13;;;3.03;;
8568;SDS011;4322;51.104;-4.162;2022-07-23T15:34:25;3.30;;;3.20;;
8568;SDS011;4322;51.104;-4.162;2022-07-23T15:36:55;3.20;;;3.10;;